sensor_id;sensor_type;location;lat;lon;timestamp;P1;durP1;ratioP1;P2;durP2;ratioP2
57055;SDS011;42945;51.718;5.324;2023-02-24T00:01:01;29.17;;;4.78;;
57055;SDS011;42945;51.718;5.324;2023-02-24T00:06:59;27.55;;;5.05;;
57055;SDS011;42945;51.718;5.324;2023-02-24T00:12:49;33.80;;;4.90;;
57055;SDS011;42945;51.718;5.324;2023-02-24T00:18:37;29.25;;;4.75;;
57055;SDS011;42945;51.718;5.324;2023-02-24T00:24:24;29.63;;;4.55;;
57055;SDS011;42945;51.718;5.324;2023-02-24T00:30:14;23.23;;;4.05;;
57055;SDS011;42945;51.718;5.324;2023-02-24T00:36:06;20.80;;;4.15;;
57055;SDS011;42945;51.718;5.324;2023-02-24T00:41:56;23.23;;;4.35;;
57055;SDS011;42945;51.718;5.324;2023-02-24T00:47:31;20.38;;;3.70;;
57055;SDS011;42945;51.718;5.324;2023-02-24T00:53:25;21.40;;;3.30;;
57055;SDS011;42945;51.718;5.324;2023-02-24T00:59:16;17.60;;;3.80;;
57055;SDS011;42945;51.718;5.324;2023-02-24T01:05:09;27.63;;;3.97;;
57055;SDS011;42945;51.718;5.324;2023-02-24T01:10:58;18.05;;;3.50;;
57055;SDS011;42945;51.718;5.324;2023-02-24T01:17:06;26.15;;;4.07;;
57055;SDS011;42945;51.718;5.324;2023-02-24T01:22:55;21.65;;;3.88;;
57055;SDS011;42945;51.718;5.324;2023-02-24T01:28:45;19.48;;;3.40;;
57055;SDS011;42945;51.718;5.324;2023-02-24T01:34:34;19.92;;;3.47;;
57055;SDS011;42945;51.718;5.324;2023-02-24T01:40:22;20.08;;;3.10;;
57055;SDS011;42945;51.718;5.324;2023-02-24T01:46:12;21.65;;;3.50;;
57055;SDS011;42945;51.718;5.324;2023-02-24T01:52:01;23.17;;;4.15;;
57055;SDS011;42945;51.718;5.324;2023-02-24T01:57:56;25.20;;;4.15;;
57055;SDS011;42945;51.718;5.324;2023-02-24T02:07:34;16.20;;;3.83;;
57055;SDS011;42945;51.718;5.324;2023-02-24T02:13:25;19.35;;;3.50;;
57055;SDS011;42945;51.718;5.324;2023-02-24T02:25:50;22.73;;;3.95;;
57055;SDS011;42945;51.718;5.324;2023-02-24T02:38:46;22.58;;;4.18;;
57055;SDS011;42945;51.718;5.324;2023-02-24T02:44:52;26.50;;;4.10;;
57055;SDS011;42945;51.718;5.324;2023-02-24T02:57:06;22.80;;;3.60;;
57055;SDS011;42945;51.718;5.324;2023-02-24T03:02:58;20.40;;;4.38;;
57055;SDS011;42945;51.718;5.324;2023-02-24T03:15:17;23.90;;;4.20;;
57055;SDS011;42945;51.718;5.324;2023-02-24T03:21:12;28.95;;;4.05;;
57055;SDS011;42945;51.718;5.324;2023-02-24T03:27:16;19.80;;;4.20;;
57055;SDS011;42945;51.718;5.324;2023-02-24T03:33:20;19.45;;;3.63;;
57055;SDS011;42945;51.718;5.324;2023-02-24T03:39:16;21.27;;;4.13;;
57055;SDS011;42945;51.718;5.324;2023-02-24T03:45:05;17.65;;;3.40;;
57055;SDS011;42945;51.718;5.324;2023-02-24T03:50:53;26.08;;;3.38;;
57055;SDS011;42945;51.718;5.324;2023-02-24T03:56:56;23.15;;;3.72;;
57055;SDS011;42945;51.718;5.324;2023-02-24T04:03:08;16.95;;;3.60;;
57055;SDS011;42945;51.718;5.324;2023-02-24T04:09:21;16.38;;;3.22;;
57055;SDS011;42945;51.718;5.324;2023-02-24T04:15:26;21.27;;;3.60;;
57055;SDS011;42945;51.718;5.324;2023-02-24T04:21:24;17.67;;;2.72;;
57055;SDS011;42945;51.718;5.324;2023-02-24T04:27:14;15.30;;;3.42;;
57055;SDS011;42945;51.718;5.324;2023-02-24T04:33:03;19.80;;;3.10;;
57055;SDS011;42945;51.718;5.324;2023-02-24T04:38:53;15.85;;;3.20;;
57055;SDS011;42945;51.718;5.324;2023-02-24T04:44:41;27.83;;;3.00;;
57055;SDS011;42945;51.718;5.324;2023-02-24T04:50:33;18.95;;;2.88;;
57055;SDS011;42945;51.718;5.324;2023-02-24T04:56:22;18.77;;;3.45;;
57055;SDS011;42945;51.718;5.324;2023-02-24T05:02:10;14.35;;;2.88;;
57055;SDS011;42945;51.718;5.324;2023-02-24T05:08:06;18.15;;;3.10;;
57055;SDS011;42945;51.718;5.324;2023-02-24T05:13:55;19.25;;;4.07;;
57055;SDS011;42945;51.718;5.324;2023-02-24T05:19:44;17.17;;;2.80;;
57055;SDS011;42945;51.718;5.324;2023-02-24T05:25:50;24.95;;;3.45;;
57055;SDS011;42945;51.718;5.324;2023-02-24T05:31:40;23.35;;;3.30;;
57055;SDS011;42945;51.718;5.324;2023-02-24T05:37:28;19.60;;;3.13;;
57055;SDS011;42945;51.718;5.324;2023-02-24T05:43:15;24.90;;;2.97;;
57055;SDS011;42945;51.718;5.324;2023-02-24T05:49:05;21.27;;;3.10;;
57055;SDS011;42945;51.718;5.324;2023-02-24T05:55:00;22.55;;;3.40;;
57055;SDS011;42945;51.718;5.324;2023-02-24T06:00:52;13.43;;;2.63;;
57055;SDS011;42945;51.718;5.324;2023-02-24T06:10:42;12.50;;;2.20;;
57055;SDS011;42945;51.718;5.324;2023-02-24T06:16:34;17.42;;;2.70;;
57055;SDS011;42945;51.718;5.324;2023-02-24T06:22:24;20.92;;;3.20;;
57055;SDS011;42945;51.718;5.324;2023-02-24T06:28:12;18.55;;;3.25;;
57055;SDS011;42945;51.718;5.324;2023-02-24T06:34:00;9.90;;;2.00;;
57055;SDS011;42945;51.718;5.324;2023-02-24T06:39:48;8.10;;;1.77;;
57055;SDS011;42945;51.718;5.324;2023-02-24T06:45:36;13.23;;;1.92;;
57055;SDS011;42945;51.718;5.324;2023-02-24T06:51:25;19.23;;;2.17;;
57055;SDS011;42945;51.718;5.324;2023-02-24T06:57:16;14.43;;;2.33;;
57055;SDS011;42945;51.718;5.324;2023-02-24T07:03:07;15.70;;;2.38;;
57055;SDS011;42945;51.718;5.324;2023-02-24T07:13:03;16.73;;;2.15;;
57055;SDS011;42945;51.718;5.324;2023-02-24T07:18:56;14.15;;;1.85;;
57055;SDS011;42945;51.718;5.324;2023-02-24T07:24:48;13.82;;;1.98;;
57055;SDS011;42945;51.718;5.324;2023-02-24T07:30:40;16.23;;;2.95;;
57055;SDS011;42945;51.718;5.324;2023-02-24T07:36:29;10.25;;;1.73;;
57055;SDS011;42945;51.718;5.324;2023-02-24T07:42:27;12.95;;;2.13;;
57055;SDS011;42945;51.718;5.324;2023-02-24T07:48:18;16.17;;;2.28;;
57055;SDS011;42945;51.718;5.324;2023-02-24T07:54:08;7.88;;;1.45;;
57055;SDS011;42945;51.718;5.324;2023-02-24T07:59:58;14.10;;;2.05;;
57055;SDS011;42945;51.718;5.324;2023-02-24T08:05:47;11.27;;;1.85;;
57055;SDS011;42945;51.718;5.324;2023-02-24T08:15:35;17.77;;;1.60;;
57055;SDS011;42945;51.718;5.324;2023-02-24T08:21:23;12.98;;;1.80;;
57055;SDS011;42945;51.718;5.324;2023-02-24T08:27:13;20.55;;;1.63;;
57055;SDS011;42945;51.718;5.324;2023-02-24T08:33:07;6.35;;;1.10;;
57055;SDS011;42945;51.718;5.324;2023-02-24T08:38:58;12.30;;;1.40;;
57055;SDS011;42945;51.718;5.324;2023-02-24T08:44:47;11.98;;;1.95;;
57055;SDS011;42945;51.718;5.324;2023-02-24T08:50:39;13.38;;;1.67;;
57055;SDS011;42945;51.718;5.324;2023-02-24T08:56:31;8.13;;;1.92;;
57055;SDS011;42945;51.718;5.324;2023-02-24T09:02:21;12.75;;;2.00;;
57055;SDS011;42945;51.718;5.324;2023-02-24T09:08:12;13.52;;;2.17;;
57055;SDS011;42945;51.718;5.324;2023-02-24T09:18:01;16.52;;;1.98;;
57055;SDS011;42945;51.718;5.324;2023-02-24T09:23:54;10.73;;;2.33;;
57055;SDS011;42945;51.718;5.324;2023-02-24T09:29:43;14.10;;;2.15;;
57055;SDS011;42945;51.718;5.324;2023-02-24T09:35:36;19.67;;;2.22;;
57055;SDS011;42945;51.718;5.324;2023-02-24T09:47:41;15.43;;;2.17;;
57055;SDS011;42945;51.718;5.324;2023-02-24T09:53:43;10.85;;;2.20;;
57055;SDS011;42945;51.718;5.324;2023-02-24T09:59:41;10.20;;;2.20;;
57055;SDS011;42945;51.718;5.324;2023-02-24T10:05:42;22.15;;;2.53;;
57055;SDS011;42945;51.718;5.324;2023-02-24T10:18:17;15.63;;;2.28;;
57055;SDS011;42945;51.718;5.324;2023-02-24T10:36:26;13.20;;;2.55;;
57055;SDS011;42945;51.718;5.324;2023-02-24T10:42:22;11.57;;;3.00;;
57055;SDS011;42945;51.718;5.324;2023-02-24T10:48:19;12.38;;;2.50;;
57055;SDS011;42945;51.718;5.324;2023-02-24T10:54:25;16.27;;;3.35;;
57055;SDS011;42945;51.718;5.324;2023-02-24T11:01:31;17.98;;;3.33;;
57055;SDS011;42945;51.718;5.324;2023-02-24T11:07:05;15.18;;;3.50;;
57055;SDS011;42945;51.718;5.324;2023-02-24T11:12:59;24.02;;;3.33;;
57055;SDS011;42945;51.718;5.324;2023-02-24T11:19:06;14.32;;;3.70;;
57055;SDS011;42945;51.718;5.324;2023-02-24T11:24:54;20.23;;;4.55;;
57055;SDS011;42945;51.718;5.324;2023-02-24T11:30:44;19.25;;;4.38;;
57055;SDS011;42945;51.718;5.324;2023-02-24T11:48:38;14.02;;;3.17;;
57055;SDS011;42945;51.718;5.324;2023-02-24T11:54:37;18.08;;;4.53;;
57055;SDS011;42945;51.718;5.324;2023-02-24T12:00:32;18.92;;;5.88;;
57055;SDS011;42945;51.718;5.324;2023-02-24T12:06:27;22.83;;;4.85;;
57055;SDS011;42945;51.718;5.324;2023-02-24T12:24:31;15.98;;;4.70;;
57055;SDS011;42945;51.718;5.324;2023-02-24T12:36:39;14.50;;;4.20;;
57055;SDS011;42945;51.718;5.324;2023-02-24T13:01:44;11.95;;;4.15;;
57055;SDS011;42945;51.718;5.324;2023-02-24T13:19:20;8.40;;;3.78;;
57055;SDS011;42945;51.718;5.324;2023-02-24T13:25:17;8.23;;;3.72;;
57055;SDS011;42945;51.718;5.324;2023-02-24T13:31:10;9.60;;;3.60;;
57055;SDS011;42945;51.718;5.324;2023-02-24T13:36:59;11.02;;;4.47;;
57055;SDS011;42945;51.718;5.324;2023-02-24T14:01:13;13.73;;;6.53;;
57055;SDS011;42945;51.718;5.324;2023-02-24T14:07:07;18.88;;;7.47;;
57055;SDS011;42945;51.718;5.324;2023-02-24T14:13:12;17.33;;;6.70;;
57055;SDS011;42945;51.718;5.324;2023-02-24T14:19:05;22.63;;;6.95;;
57055;SDS011;42945;51.718;5.324;2023-02-24T14:25:00;19.15;;;7.00;;
57055;SDS011;42945;51.718;5.324;2023-02-24T14:30:53;17.48;;;7.32;;
57055;SDS011;42945;51.718;5.324;2023-02-24T14:36:45;17.95;;;4.68;;
57055;SDS011;42945;51.718;5.324;2023-02-24T14:42:47;22.83;;;3.13;;
57055;SDS011;42945;51.718;5.324;2023-02-24T14:48:37;14.05;;;1.52;;
57055;SDS011;42945;51.718;5.324;2023-02-24T14:54:42;9.35;;;1.40;;
57055;SDS011;42945;51.718;5.324;2023-02-24T15:00:36;9.68;;;1.35;;
57055;SDS011;42945;51.718;5.324;2023-02-24T15:06:28;7.75;;;1.05;;
57055;SDS011;42945;51.718;5.324;2023-02-24T15:12:23;18.60;;;2.30;;
57055;SDS011;42945;51.718;5.324;2023-02-24T15:18:23;14.90;;;2.00;;
57055;SDS011;42945;51.718;5.324;2023-02-24T15:24:27;15.73;;;1.90;;
57055;SDS011;42945;51.718;5.324;2023-02-24T15:30:24;12.55;;;1.75;;
57055;SDS011;42945;51.718;5.324;2023-02-24T15:36:16;15.00;;;2.05;;
57055;SDS011;42945;51.718;5.324;2023-02-24T15:42:20;20.55;;;1.90;;
57055;SDS011;42945;51.718;5.324;2023-02-24T15:48:41;13.85;;;2.10;;
57055;SDS011;42945;51.718;5.324;2023-02-24T15:54:33;19.90;;;2.05;;
57055;SDS011;42945;51.718;5.324;2023-02-24T16:00:23;16.05;;;1.83;;
57055;SDS011;42945;51.718;5.324;2023-02-24T16:06:13;12.32;;;1.60;;
57055;SDS011;42945;51.718;5.324;2023-02-24T16:12:15;11.05;;;1.48;;
57055;SDS011;42945;51.718;5.324;2023-02-24T16:18:20;12.68;;;1.10;;
57055;SDS011;42945;51.718;5.324;2023-02-24T16:24:10;9.23;;;1.33;;
57055;SDS011;42945;51.718;5.324;2023-02-24T16:29:59;6.75;;;0.57;;
57055;SDS011;42945;51.718;5.324;2023-02-24T16:35:48;5.40;;;0.93;;
57055;SDS011;42945;51.718;5.324;2023-02-24T16:41:39;14.38;;;0.88;;
57055;SDS011;42945;51.718;5.324;2023-02-24T16:47:27;7.05;;;0.80;;
57055;SDS011;42945;51.718;5.324;2023-02-24T16:53:21;9.18;;;1.15;;
57055;SDS011;42945;51.718;5.324;2023-02-24T16:59:09;5.50;;;1.10;;
57055;SDS011;42945;51.718;5.324;2023-02-24T17:04:57;9.05;;;0.82;;
57055;SDS011;42945;51.718;5.324;2023-02-24T17:10:47;8.80;;;1.42;;
57055;SDS011;42945;51.718;5.324;2023-02-24T17:20:25;10.88;;;1.33;;
57055;SDS011;42945;51.718;5.324;2023-02-24T17:26:14;3.25;;;0.50;;
57055;SDS011;42945;51.718;5.324;2023-02-24T17:32:02;8.80;;;0.88;;
57055;SDS011;42945;51.718;5.324;2023-02-24T17:37:51;7.82;;;1.00;;
57055;SDS011;42945;51.718;5.324;2023-02-24T17:43:41;5.57;;;0.82;;
57055;SDS011;42945;51.718;5.324;2023-02-24T17:49:28;9.82;;;1.10;;
57055;SDS011;42945;51.718;5.324;2023-02-24T17:55:18;9.55;;;2.08;;
57055;SDS011;42945;51.718;5.324;2023-02-24T18:01:05;4.82;;;1.10;;
57055;SDS011;42945;51.718;5.324;2023-02-24T18:06:53;12.35;;;1.65;;
57055;SDS011;42945;51.718;5.324;2023-02-24T18:12:42;10.80;;;1.80;;
57055;SDS011;42945;51.718;5.324;2023-02-24T18:22:11;16.95;;;2.08;;
57055;SDS011;42945;51.718;5.324;2023-02-24T18:27:59;10.55;;;1.92;;
57055;SDS011;42945;51.718;5.324;2023-02-24T18:33:48;8.80;;;1.35;;
57055;SDS011;42945;51.718;5.324;2023-02-24T18:39:37;10.23;;;1.15;;
57055;SDS011;42945;51.718;5.324;2023-02-24T18:45:25;13.30;;;1.15;;
57055;SDS011;42945;51.718;5.324;2023-02-24T18:51:14;10.57;;;1.38;;
57055;SDS011;42945;51.718;5.324;2023-02-24T18:57:06;11.80;;;1.65;;
57055;SDS011;42945;51.718;5.324;2023-02-24T19:02:55;14.68;;;1.70;;
57055;SDS011;42945;51.718;5.324;2023-02-24T19:08:43;18.27;;;1.83;;
57055;SDS011;42945;51.718;5.324;2023-02-24T19:14:32;18.27;;;2.28;;
57055;SDS011;42945;51.718;5.324;2023-02-24T19:20:21;14.95;;;2.53;;
57055;SDS011;42945;51.718;5.324;2023-02-24T19:26:18;16.88;;;1.98;;
57055;SDS011;42945;51.718;5.324;2023-02-24T19:32:08;19.33;;;2.10;;
57055;SDS011;42945;51.718;5.324;2023-02-24T19:37:56;18.65;;;2.70;;
57055;SDS011;42945;51.718;5.324;2023-02-24T19:43:44;25.27;;;2.38;;
57055;SDS011;42945;51.718;5.324;2023-02-24T19:49:33;19.63;;;2.08;;
57055;SDS011;42945;51.718;5.324;2023-02-24T19:55:21;17.63;;;2.55;;
57055;SDS011;42945;51.718;5.324;2023-02-24T20:01:10;15.55;;;2.58;;
57055;SDS011;42945;51.718;5.324;2023-02-24T20:07:00;20.77;;;2.47;;
57055;SDS011;42945;51.718;5.324;2023-02-24T20:12:48;16.17;;;2.58;;
57055;SDS011;42945;51.718;5.324;2023-02-24T20:18:36;10.35;;;1.80;;
57055;SDS011;42945;51.718;5.324;2023-02-24T20:24:25;13.23;;;2.05;;
57055;SDS011;42945;51.718;5.324;2023-02-24T20:30:13;14.45;;;2.25;;
57055;SDS011;42945;51.718;5.324;2023-02-24T20:36:05;12.25;;;1.98;;
57055;SDS011;42945;51.718;5.324;2023-02-24T20:41:59;13.25;;;2.03;;
57055;SDS011;42945;51.718;5.324;2023-02-24T20:47:49;16.58;;;2.50;;
57055;SDS011;42945;51.718;5.324;2023-02-24T20:53:36;17.70;;;2.13;;
57055;SDS011;42945;51.718;5.324;2023-02-24T20:59:26;11.98;;;2.40;;
57055;SDS011;42945;51.718;5.324;2023-02-24T21:05:18;17.25;;;2.28;;
57055;SDS011;42945;51.718;5.324;2023-02-24T21:11:09;11.40;;;1.67;;
57055;SDS011;42945;51.718;5.324;2023-02-24T21:16:59;13.63;;;2.40;;
57055;SDS011;42945;51.718;5.324;2023-02-24T21:26:36;14.40;;;2.63;;
57055;SDS011;42945;51.718;5.324;2023-02-24T21:32:24;9.27;;;1.42;;
57055;SDS011;42945;51.718;5.324;2023-02-24T21:38:13;12.85;;;1.77;;
57055;SDS011;42945;51.718;5.324;2023-02-24T21:44:03;14.35;;;1.83;;
57055;SDS011;42945;51.718;5.324;2023-02-24T21:49:52;16.77;;;1.98;;
57055;SDS011;42945;51.718;5.324;2023-02-24T21:55:39;12.13;;;1.80;;
57055;SDS011;42945;51.718;5.324;2023-02-24T22:01:37;8.30;;;1.00;;
57055;SDS011;42945;51.718;5.324;2023-02-24T22:07:30;10.82;;;1.40;;
57055;SDS011;42945;51.718;5.324;2023-02-24T22:13:19;8.02;;;1.70;;
57055;SDS011;42945;51.718;5.324;2023-02-24T22:19:08;9.90;;;1.70;;
57055;SDS011;42945;51.718;5.324;2023-02-24T22:28:52;10.90;;;1.80;;
57055;SDS011;42945;51.718;5.324;2023-02-24T22:34:42;8.32;;;1.33;;
57055;SDS011;42945;51.718;5.324;2023-02-24T22:40:31;12.65;;;1.08;;
57055;SDS011;42945;51.718;5.324;2023-02-24T22:46:19;8.27;;;1.02;;
57055;SDS011;42945;51.718;5.324;2023-02-24T22:52:10;14.55;;;1.80;;
57055;SDS011;42945;51.718;5.324;2023-02-24T22:58:03;10.40;;;1.40;;
57055;SDS011;42945;51.718;5.324;2023-02-24T23:03:50;13.10;;;1.65;;
57055;SDS011;42945;51.718;5.324;2023-02-24T23:09:39;14.77;;;2.33;;
57055;SDS011;42945;51.718;5.324;2023-02-24T23:15:38;8.90;;;2.83;;
57055;SDS011;42945;51.718;5.324;2023-02-24T23:21:37;13.95;;;2.83;;
57055;SDS011;42945;51.718;5.324;2023-02-24T23:31:29;13.85;;;1.90;;
57055;SDS011;42945;51.718;5.324;2023-02-24T23:37:18;18.13;;;2.13;;
57055;SDS011;42945;51.718;5.324;2023-02-24T23:43:07;13.13;;;2.30;;
57055;SDS011;42945;51.718;5.324;2023-02-24T23:48:55;9.27;;;1.20;;
57055;SDS011;42945;51.718;5.324;2023-02-24T23:54:47;10.45;;;1.42;;
